Time;durP1;ratioP1;P1;durP2;ratioP2;P2;SDS_P1;SDS_P2;PMS_P1;PMS_P2;Temp;Humidity;BMP_temperature;BMP_pressure;BME280_temperature;BME280_humidity;BME280_pressure;Samples;Min_cycle;Max_cycle;Signal;HPM_P1;HPM_P2
2023/05/13 00:01:25;;;;;;;;;;;23.00;55.30;;;;;;1605637;72;1242;-72
2023/05/13 00:03:27;;;;;;;;;;;23.00;55.30;;;;;;1610964;72;739;-73
2023/05/13 00:05:29;;;;;;;;;;;22.90;55.40;;;;;;1608845;72;1552;-73
2023/05/13 00:07:31;;;;;;;;;;;23.00;55.50;;;;;;1608782;72;798;-72
2023/05/13 00:09:33;;;;;;;;;;;22.90;55.50;;;;;;1610135;72;778;-73
2023/05/13 00:11:35;;;;;;;;;;;22.90;55.30;;;;;;1608244;72;1104;-73
2023/05/13 00:13:36;;;;;;;;;;;22.90;55.40;;;;;;1606703;72;799;-73
2023/05/13 00:15:39;;;;;;;;;;;22.90;55.40;;;;;;1609700;72;798;-73
2023/05/13 00:17:41;;;;;;;;;;;22.90;55.30;;;;;;1609244;72;1936;-72
2023/05/13 00:19:43;;;;;;;;;;;22.90;55.40;;;;;;1609146;73;789;-73
2023/05/13 00:21:45;;;;;;;;;;;22.90;55.20;;;;;;1608687;72;1178;-71
2023/05/13 00:23:47;;;;;;;;;;;23.00;55.20;;;;;;1609801;72;791;-69
2023/05/13 00:25:49;;;;;;;;;;;22.90;55.60;;;;;;1608465;72;766;-69
2023/05/13 00:27:51;;;;;;;;;;;22.90;55.70;;;;;;1610087;72;767;-68
2023/05/13 00:29:53;;;;;;;;;;;22.90;55.80;;;;;;1613000;72;783;-69
2023/05/13 00:31:55;;;;;;;;;;;22.90;55.70;;;;;;1608625;72;1163;-68
2023/05/13 00:33:57;;;;;;;;;;;22.90;55.70;;;;;;1609596;72;795;-68
2023/05/13 00:35:58;;;;;;;;;;;22.90;55.90;;;;;;1615119;72;1914;-69
2023/05/13 00:38:00;;;;;;;;;;;22.90;55.80;;;;;;1612727;72;775;-69
2023/05/13 00:40:02;;;;;;;;;;;22.90;55.80;;;;;;1610489;72;739;-69
2023/05/13 00:42:04;;;;;;;;;;;22.90;55.70;;;;;;1606841;72;1163;-68
2023/05/13 00:44:06;;;;;;;;;;;22.90;55.80;;;;;;1610931;73;811;-70
2023/05/13 00:46:08;;;;;;;;;;;22.90;55.70;;;;;;1610984;72;765;-70
2023/05/13 00:48:10;;;;;;;;;;;22.90;55.60;;;;;;1609783;73;905;-71
2023/05/13 00:50:12;;;;;;;;;;;23.00;55.70;;;;;;1611548;72;771;-69
2023/05/13 00:52:14;;;;;;;;;;;22.90;55.60;;;;;;1605882;72;1175;-69
2023/05/13 00:54:16;;;;;;;;;;;22.90;55.70;;;;;;1608268;72;771;-69
2023/05/13 00:56:20;;;;;;;;;;;23.00;55.70;;;;;;1614244;72;1944;-70
2023/05/13 00:58:22;;;;;;;;;;;22.90;55.70;;;;;;1605519;72;761;-73
2023/05/13 01:00:24;;;;;;;;;;;22.90;55.80;;;;;;1607304;72;1207;-70
2023/05/13 01:02:33;;;;;;;;;;;22.90;55.90;;;;;;1614526;72;806;-70
2023/05/13 01:04:52;;;;;;;;;;;22.90;55.90;;;;;;1619706;72;759;-69
2023/05/13 01:06:58;;;;;;;;;;;22.90;56.00;;;;;;1605258;72;1379;-70
2023/05/13 01:09:04;;;;;;;;;;;22.80;56.50;;;;;;1608221;72;1623;-69
2023/05/13 01:11:14;;;;;;;;;;;22.90;56.30;;;;;;1606218;72;1176;-70
2023/05/13 01:13:18;;;;;;;;;;;22.90;56.50;;;;;;1609419;72;749;-70
2023/05/13 01:15:24;;;;;;;;;;;22.90;56.30;;;;;;1603838;72;1500;-69
2023/05/13 01:17:31;;;;;;;;;;;22.90;56.40;;;;;;1605461;72;1938;-70
2023/05/13 01:19:40;;;;;;;;;;;22.80;56.30;;;;;;1609042;72;1050;-71
2023/05/13 01:21:42;;;;;;;;;;;22.90;56.50;;;;;;1610318;72;1147;-70
2023/05/13 01:23:44;;;;;;;;;;;22.90;56.40;;;;;;1572755;74;1092;-70
2023/05/13 01:25:46;;;;;;;;;;;22.80;56.30;;;;;;1608312;72;775;-70
2023/05/13 01:27:48;;;;;;;;;;;22.90;56.60;;;;;;1615034;72;794;-71
2023/05/13 01:29:50;;;;;;;;;;;22.90;56.50;;;;;;1605281;72;778;-71
2023/05/13 01:31:52;;;;;;;;;;;22.90;56.60;;;;;;1607425;72;1218;-71
2023/05/13 01:33:54;;;;;;;;;;;22.90;56.60;;;;;;1609924;72;678;-71
2023/05/13 01:35:56;;;;;;;;;;;22.80;56.50;;;;;;1618120;72;797;-72
2023/05/13 01:37:57;;;;;;;;;;;22.90;56.80;;;;;;1607460;72;1942;-73
2023/05/13 01:39:59;;;;;;;;;;;22.90;56.90;;;;;;1605302;72;776;-72
2023/05/13 01:42:02;;;;;;;;;;;22.80;56.80;;;;;;1597530;72;1148;-73
2023/05/13 01:44:03;;;;;;;;;;;22.80;56.80;;;;;;1607282;72;777;-71
2023/05/13 01:46:07;;;;;;;;;;;22.70;56.80;;;;;;1613833;72;758;-71
2023/05/13 01:48:09;;;;;;;;;;;22.80;56.70;;;;;;1608038;72;1116;-71
2023/05/13 01:50:11;;;;;;;;;;;22.80;56.70;;;;;;1607738;72;759;-72
2023/05/13 01:52:13;;;;;;;;;;;22.90;56.70;;;;;;1609947;72;1118;-71
2023/05/13 01:54:14;;;;;;;;;;;22.80;56.50;;;;;;1611085;72;691;-70
2023/05/13 01:56:16;;;;;;;;;;;22.90;56.50;;;;;;1607694;72;655;-72
2023/05/13 01:58:18;;;;;;;;;;;22.90;56.60;;;;;;1608277;72;837;-73
2023/05/13 02:00:20;;;;;;;;;;;22.80;56.40;;;;;;1609036;72;1249;-71
2023/05/13 02:02:22;;;;;;;;;;;22.90;56.80;;;;;;1611023;72;786;-70
2023/05/13 02:04:24;;;;;;;;;;;22.90;56.60;;;;;;1609639;72;588;-71
2023/05/13 02:06:27;;;;;;;;;;;22.90;56.60;;;;;;1605602;72;885;-70
2023/05/13 02:08:29;;;;;;;;;;;22.90;56.50;;;;;;1610211;72;812;-69
2023/05/13 02:10:31;;;;;;;;;;;22.90;56.40;;;;;;1610257;72;1478;-69
2023/05/13 02:12:33;;;;;;;;;;;22.90;56.40;;;;;;1608016;72;751;-70
2023/05/13 02:14:36;;;;;;;;;;;22.90;56.30;;;;;;1612540;72;659;-70
2023/05/13 02:16:38;;;;;;;;;;;22.90;56.20;;;;;;1614116;72;1943;-69
2023/05/13 02:18:40;;;;;;;;;;;23.00;56.10;;;;;;1605507;72;759;-69
2023/05/13 02:20:42;;;;;;;;;;;22.90;55.90;;;;;;1610531;72;1183;-69
2023/05/13 02:22:43;;;;;;;;;;;23.00;55.90;;;;;;1607619;72;749;-69
2023/05/13 02:24:45;;;;;;;;;;;23.00;55.90;;;;;;1605364;72;764;-70
2023/05/13 02:26:47;;;;;;;;;;;23.00;55.90;;;;;;1613294;72;743;-71
2023/05/13 02:28:49;;;;;;;;;;;22.90;55.90;;;;;;1618397;72;751;-70
2023/05/13 02:30:51;;;;;;;;;;;22.90;56.00;;;;;;1611191;72;1174;-70
2023/05/13 02:32:53;;;;;;;;;;;22.90;56.00;;;;;;1605334;72;801;-69
2023/05/13 02:34:55;;;;;;;;;;;22.90;56.00;;;;;;1608487;72;790;-69
2023/05/13 02:36:57;;;;;;;;;;;22.90;56.00;;;;;;1603649;72;1932;-69
2023/05/13 02:38:59;;;;;;;;;;;22.90;56.00;;;;;;1609613;72;790;-68
2023/05/13 02:41:01;;;;;;;;;;;22.80;55.90;;;;;;1614148;73;1171;-69
2023/05/13 02:43:03;;;;;;;;;;;22.90;56.10;;;;;;1606343;72;796;-70
2023/05/13 02:45:05;;;;;;;;;;;22.80;56.10;;;;;;1604098;72;776;-69
2023/05/13 02:47:07;;;;;;;;;;;22.80;55.90;;;;;;1608116;72;770;-70
2023/05/13 02:49:09;;;;;;;;;;;22.90;56.00;;;;;;1612738;72;764;-71
2023/05/13 02:51:11;;;;;;;;;;;22.80;55.90;;;;;;1604222;72;1170;-70
2023/05/13 02:53:13;;;;;;;;;;;22.90;55.90;;;;;;1609539;72;810;-71
2023/05/13 02:55:15;;;;;;;;;;;22.80;55.80;;;;;;1575060;74;752;-71
2023/05/13 02:57:16;;;;;;;;;;;22.90;55.80;;;;;;1612486;72;1942;-70
2023/05/13 02:59:18;;;;;;;;;;;22.80;55.80;;;;;;1611772;72;624;-70
2023/05/13 03:01:20;;;;;;;;;;;22.90;55.70;;;;;;1610953;72;1267;-70
2023/05/13 03:03:22;;;;;;;;;;;22.80;55.70;;;;;;1610998;72;787;-71
2023/05/13 03:05:24;;;;;;;;;;;22.80;55.60;;;;;;1609359;72;734;-70
2023/05/13 03:07:26;;;;;;;;;;;22.80;55.50;;;;;;1611822;72;1411;-69
2023/05/13 03:09:28;;;;;;;;;;;22.80;55.60;;;;;;1612302;72;743;-71
2023/05/13 03:11:30;;;;;;;;;;;22.80;55.60;;;;;;1612350;72;1205;-71
2023/05/13 03:13:31;;;;;;;;;;;22.90;55.70;;;;;;1606559;73;752;-71
2023/05/13 03:15:33;;;;;;;;;;;22.90;55.70;;;;;;1611312;72;757;-71
2023/05/13 03:17:35;;;;;;;;;;;22.80;55.40;;;;;;1609195;72;1930;-71
2023/05/13 03:19:37;;;;;;;;;;;22.80;55.50;;;;;;1611411;72;769;-72
2023/05/13 03:21:39;;;;;;;;;;;22.90;55.80;;;;;;1615547;72;1178;-71
2023/05/13 03:23:41;;;;;;;;;;;22.80;55.60;;;;;;1606515;72;787;-71
2023/05/13 03:25:43;;;;;;;;;;;22.90;55.70;;;;;;1609172;72;766;-72
2023/05/13 03:27:45;;;;;;;;;;;22.90;55.80;;;;;;1573492;74;767;-70
2023/05/13 03:29:47;;;;;;;;;;;22.90;55.80;;;;;;1557237;74;660;-70
2023/05/13 03:31:49;;;;;;;;;;;22.90;55.50;;;;;;1610666;72;1151;-71
2023/05/13 03:33:51;;;;;;;;;;;22.90;55.70;;;;;;1610951;73;765;-69
2023/05/13 03:35:53;;;;;;;;;;;22.90;55.80;;;;;;1610484;72;802;-70
2023/05/13 03:37:54;;;;;;;;;;;22.80;55.70;;;;;;1613597;72;1927;-71
2023/05/13 03:39:56;;;;;;;;;;;22.80;55.80;;;;;;1607689;72;796;-72
2023/05/13 03:41:58;;;;;;;;;;;22.80;56.00;;;;;;1606838;72;1136;-72
2023/05/13 03:44:00;;;;;;;;;;;22.80;56.10;;;;;;1608581;72;975;-73
2023/05/13 03:46:02;;;;;;;;;;;22.80;56.00;;;;;;1614576;72;797;-74
2023/05/13 03:48:04;;;;;;;;;;;22.80;56.30;;;;;;1608409;73;767;-73
2023/05/13 03:50:06;;;;;;;;;;;22.80;56.20;;;;;;1610999;72;751;-75
2023/05/13 03:52:08;;;;;;;;;;;22.70;56.40;;;;;;1613799;72;1174;-71
2023/05/13 03:54:10;;;;;;;;;;;22.70;56.40;;;;;;1609457;72;589;-73
2023/05/13 03:56:13;;;;;;;;;;;22.70;56.50;;;;;;1608809;72;800;-72
2023/05/13 03:58:15;;;;;;;;;;;22.70;56.50;;;;;;1605173;72;1957;-72
2023/05/13 04:00:16;;;;;;;;;;;22.80;56.30;;;;;;1613971;72;761;-66
2023/05/13 04:02:20;;;;;;;;;;;22.70;57.00;;;;;;1614026;72;775;-71
2023/05/13 04:04:22;;;;;;;;;;;22.70;57.20;;;;;;1610450;73;1570;-71
2023/05/13 04:06:24;;;;;;;;;;;22.60;56.90;;;;;;1605414;72;792;-71
2023/05/13 04:08:26;;;;;;;;;;;22.60;57.10;;;;;;1611323;72;699;-71
2023/05/13 04:10:28;;;;;;;;;;;22.60;57.00;;;;;;1607631;72;1229;-70
2023/05/13 04:12:32;;;;;;;;;;;22.60;56.90;;;;;;1611021;72;672;-71
2023/05/13 04:14:33;;;;;;;;;;;22.60;56.80;;;;;;1611605;72;1784;-72
2023/05/13 04:16:35;;;;;;;;;;;22.60;56.70;;;;;;1610173;72;766;-71
2023/05/13 04:18:37;;;;;;;;;;;22.70;56.80;;;;;;1611313;72;1956;-72
2023/05/13 04:20:39;;;;;;;;;;;22.70;56.40;;;;;;1609071;72;1167;-70
2023/05/13 04:22:41;;;;;;;;;;;22.70;56.80;;;;;;1615664;72;736;-70
2023/05/13 04:24:43;;;;;;;;;;;22.70;56.60;;;;;;1609155;72;764;-71
2023/05/13 04:26:45;;;;;;;;;;;22.70;56.50;;;;;;1613470;72;633;-70
2023/05/13 04:28:47;;;;;;;;;;;22.70;56.50;;;;;;1605413;72;799;-70
2023/05/13 04:30:48;;;;;;;;;;;22.70;56.50;;;;;;1618125;72;1147;-71
2023/05/13 04:32:50;;;;;;;;;;;22.80;56.40;;;;;;1611879;72;783;-70
2023/05/13 04:34:52;;;;;;;;;;;22.70;56.30;;;;;;1611616;72;742;-71
2023/05/13 04:36:54;;;;;;;;;;;22.70;56.20;;;;;;1607657;73;791;-72
2023/05/13 04:38:56;;;;;;;;;;;22.70;56.20;;;;;;1608321;72;1959;-71
2023/05/13 04:40:58;;;;;;;;;;;22.80;56.00;;;;;;1609536;72;1174;-70
2023/05/13 04:43:00;;;;;;;;;;;22.80;56.00;;;;;;1608903;72;717;-69
2023/05/13 04:45:01;;;;;;;;;;;22.80;55.90;;;;;;1606729;72;707;-69
2023/05/13 04:47:03;;;;;;;;;;;22.80;56.00;;;;;;1612780;72;755;-69
2023/05/13 04:49:05;;;;;;;;;;;22.80;56.00;;;;;;1613045;72;778;-69
2023/05/13 04:51:07;;;;;;;;;;;22.80;55.90;;;;;;1612390;72;1260;-69
2023/05/13 04:53:09;;;;;;;;;;;22.80;55.90;;;;;;1611871;72;769;-69
2023/05/13 04:55:11;;;;;;;;;;;22.80;56.00;;;;;;1612186;72;800;-69
2023/05/13 04:57:13;;;;;;;;;;;22.80;56.00;;;;;;1614810;72;766;-69
2023/05/13 04:59:15;;;;;;;;;;;22.80;56.00;;;;;;1608107;72;1949;-70
2023/05/13 05:01:17;;;;;;;;;;;22.80;56.00;;;;;;1610770;72;1176;-69
2023/05/13 05:03:18;;;;;;;;;;;22.80;55.90;;;;;;1608637;72;739;-69
2023/05/13 05:05:20;;;;;;;;;;;22.70;56.00;;;;;;1609514;72;747;-69
2023/05/13 05:07:22;;;;;;;;;;;22.70;56.00;;;;;;1610098;72;641;-72
2023/05/13 05:09:24;;;;;;;;;;;22.70;56.00;;;;;;1612355;72;681;-71
2023/05/13 05:11:26;;;;;;;;;;;22.70;56.40;;;;;;1611081;72;1194;-72
2023/05/13 05:13:28;;;;;;;;;;;22.70;56.30;;;;;;1609765;73;797;-72
2023/05/13 05:15:30;;;;;;;;;;;22.70;56.30;;;;;;1616420;72;753;-71
2023/05/13 05:17:32;;;;;;;;;;;22.70;56.20;;;;;;1614302;72;770;-71
2023/05/13 05:19:34;;;;;;;;;;;22.70;56.30;;;;;;1609786;72;755;-72
2023/05/13 05:21:36;;;;;;;;;;;22.80;56.40;;;;;;1609296;72;1178;-72
2023/05/13 05:23:38;;;;;;;;;;;22.80;56.30;;;;;;1607404;73;809;-72
2023/05/13 05:25:40;;;;;;;;;;;22.80;56.30;;;;;;1602060;72;761;-71
2023/05/13 05:27:42;;;;;;;;;;;22.80;56.40;;;;;;1609666;72;719;-72
2023/05/13 05:29:44;;;;;;;;;;;22.80;56.50;;;;;;1611755;72;764;-71
2023/05/13 05:31:46;;;;;;;;;;;22.70;56.60;;;;;;1609859;73;1131;-72
2023/05/13 05:33:48;;;;;;;;;;;22.70;56.60;;;;;;1618647;72;786;-71
2023/05/13 05:35:49;;;;;;;;;;;22.70;56.60;;;;;;1612589;72;754;-71
2023/05/13 05:37:51;;;;;;;;;;;22.70;57.00;;;;;;1610166;72;1922;-70
2023/05/13 05:39:53;;;;;;;;;;;22.70;57.70;;;;;;1608367;72;789;-67
2023/05/13 05:41:55;;;;;;;;;;;22.60;57.50;;;;;;1610906;73;1171;-67
2023/05/13 05:43:57;;;;;;;;;;;22.60;57.80;;;;;;1609239;72;779;-67
2023/05/13 05:45:59;;;;;;;;;;;22.50;57.70;;;;;;1611174;72;823;-69
2023/05/13 05:48:01;;;;;;;;;;;22.50;57.70;;;;;;1609556;72;775;-67
2023/05/13 05:50:03;;;;;;;;;;;22.50;57.10;;;;;;1611521;72;755;-66
2023/05/13 05:52:05;;;;;;;;;;;22.50;57.60;;;;;;1609162;72;1315;-68
2023/05/13 05:54:06;;;;;;;;;;;22.40;57.90;;;;;;1609356;72;783;-69
2023/05/13 05:56:08;;;;;;;;;;;22.40;57.90;;;;;;1610036;72;1447;-68
2023/05/13 05:58:10;;;;;;;;;;;22.40;57.70;;;;;;1611575;72;1940;-70
2023/05/13 06:00:12;;;;;;;;;;;22.50;57.90;;;;;;1577025;74;1189;-71
2023/05/13 06:02:14;;;;;;;;;;;22.50;57.30;;;;;;1612017;73;1101;-68
2023/05/13 06:04:16;;;;;;;;;;;22.50;57.00;;;;;;1610990;72;751;-72
2023/05/13 06:06:18;;;;;;;;;;;22.60;56.00;;;;;;1618670;72;782;-68
2023/05/13 06:08:20;;;;;;;;;;;22.60;56.50;;;;;;1609425;72;830;-67
2023/05/13 06:10:22;;;;;;;;;;;22.50;56.40;;;;;;1611049;72;1218;-69
2023/05/13 06:12:24;;;;;;;;;;;22.50;56.30;;;;;;1608657;72;791;-69
2023/05/13 06:14:25;;;;;;;;;;;22.60;55.90;;;;;;1608377;72;757;-69
2023/05/13 06:16:27;;;;;;;;;;;22.60;55.70;;;;;;1613138;72;706;-69
2023/05/13 06:18:29;;;;;;;;;;;22.50;55.70;;;;;;1611436;72;1936;-70
2023/05/13 06:20:31;;;;;;;;;;;22.60;55.40;;;;;;1616517;72;1167;-68
2023/05/13 06:22:33;;;;;;;;;;;22.60;55.30;;;;;;1614229;72;750;-67
2023/05/13 06:24:35;;;;;;;;;;;22.50;55.30;;;;;;1605208;73;762;-68
2023/05/13 06:26:37;;;;;;;;;;;22.60;55.20;;;;;;1607633;72;797;-68
2023/05/13 06:28:39;;;;;;;;;;;22.60;55.20;;;;;;1610813;72;749;-68
2023/05/13 06:30:41;;;;;;;;;;;22.60;55.20;;;;;;1609043;72;1191;-68
2023/05/13 06:32:43;;;;;;;;;;;22.60;55.20;;;;;;1610006;72;738;-68
2023/05/13 06:34:45;;;;;;;;;;;22.60;55.30;;;;;;1605232;72;668;-68
2023/05/13 06:36:46;;;;;;;;;;;22.60;55.30;;;;;;1613650;72;1135;-71
2023/05/13 06:38:48;;;;;;;;;;;22.50;55.30;;;;;;1613815;72;1961;-68
2023/05/13 06:40:50;;;;;;;;;;;22.50;55.30;;;;;;1608366;72;1228;-68
2023/05/13 06:42:52;;;;;;;;;;;22.50;55.30;;;;;;1608509;72;1240;-69
2023/05/13 06:44:54;;;;;;;;;;;22.50;55.20;;;;;;1609613;72;1257;-68
2023/05/13 06:46:56;;;;;;;;;;;22.50;55.20;;;;;;1610675;72;803;-72
2023/05/13 06:48:58;;;;;;;;;;;22.50;55.20;;;;;;1612579;72;1403;-68
2023/05/13 06:51:00;;;;;;;;;;;22.50;55.10;;;;;;1609388;72;1203;-69
2023/05/13 06:53:01;;;;;;;;;;;22.50;55.10;;;;;;1610820;72;1402;-67
2023/05/13 06:55:03;;;;;;;;;;;22.50;55.00;;;;;;1611402;72;1131;-68
2023/05/13 06:57:06;;;;;;;;;;;22.50;55.00;;;;;;1611777;72;1391;-67
2023/05/13 06:59:08;;;;;;;;;;;22.50;55.00;;;;;;1603183;72;1949;-71
2023/05/13 07:01:09;;;;;;;;;;;22.40;54.90;;;;;;1609199;72;1225;-72
2023/05/13 07:03:11;;;;;;;;;;;22.50;55.00;;;;;;1608162;72;1434;-70
2023/05/13 07:05:13;;;;;;;;;;;22.50;55.00;;;;;;1607234;72;1217;-70
2023/05/13 07:07:15;;;;;;;;;;;22.40;54.80;;;;;;1611286;72;1411;-73
2023/05/13 07:09:17;;;;;;;;;;;22.40;54.80;;;;;;1613416;72;1099;-71
2023/05/13 07:11:19;;;;;;;;;;;22.40;54.80;;;;;;1606848;72;1376;-70
2023/05/13 07:13:21;;;;;;;;;;;22.40;54.80;;;;;;1617955;72;1228;-70
2023/05/13 07:15:23;;;;;;;;;;;22.40;54.70;;;;;;1615266;72;1233;-69
2023/05/13 07:17:25;;;;;;;;;;;22.30;54.70;;;;;;1606442;72;1431;-70
2023/05/13 07:19:26;;;;;;;;;;;22.40;54.70;;;;;;1607116;72;1955;-67
2023/05/13 07:21:29;;;;;;;;;;;22.40;54.70;;;;;;1614777;72;1462;-70
2023/05/13 07:23:31;;;;;;;;;;;22.30;54.70;;;;;;1609667;72;1437;-72
2023/05/13 07:25:33;;;;;;;;;;;22.30;54.70;;;;;;1608649;72;1248;-70
2023/05/13 07:27:35;;;;;;;;;;;22.40;54.70;;;;;;1609369;72;1419;-70
2023/05/13 07:29:36;;;;;;;;;;;22.40;54.70;;;;;;1613241;72;1204;-70
2023/05/13 07:31:38;;;;;;;;;;;22.30;54.60;;;;;;1608996;72;1376;-71
2023/05/13 07:33:40;;;;;;;;;;;22.20;54.50;;;;;;1613663;72;1354;-69
2023/05/13 07:35:42;;;;;;;;;;;22.30;54.60;;;;;;1611254;72;1373;-69
2023/05/13 07:37:44;;;;;;;;;;;22.20;54.40;;;;;;1613564;72;1366;-70
2023/05/13 07:39:46;;;;;;;;;;;22.30;54.50;;;;;;1611189;72;1939;-70
2023/05/13 07:41:48;;;;;;;;;;;22.30;54.60;;;;;;1609105;72;1163;-69
2023/05/13 07:43:50;;;;;;;;;;;22.30;54.50;;;;;;1608775;72;1235;-71
2023/05/13 07:45:52;;;;;;;;;;;22.20;54.40;;;;;;1608421;72;1244;-69
2023/05/13 07:47:55;;;;;;;;;;;22.20;54.30;;;;;;1607985;72;1349;-70
2023/05/13 07:49:57;;;;;;;;;;;22.30;54.40;;;;;;1614468;72;1253;-68
2023/05/13 07:51:59;;;;;;;;;;;22.30;54.40;;;;;;1609070;72;1250;-69
2023/05/13 07:54:00;;;;;;;;;;;22.20;54.20;;;;;;1612954;72;1189;-69
2023/05/13 07:56:02;;;;;;;;;;;22.20;54.20;;;;;;1611591;72;1203;-70
2023/05/13 07:58:05;;;;;;;;;;;22.30;54.30;;;;;;1601535;72;1352;-72
2023/05/13 08:00:07;;;;;;;;;;;22.20;54.20;;;;;;1607854;72;1952;-70
2023/05/13 08:02:09;;;;;;;;;;;22.20;54.00;;;;;;1603769;72;1365;-70
2023/05/13 08:04:11;;;;;;;;;;;22.20;54.10;;;;;;1605866;72;1184;-69
2023/05/13 08:06:13;;;;;;;;;;;22.20;54.10;;;;;;1607318;72;1193;-69
2023/05/13 08:08:15;;;;;;;;;;;22.20;54.10;;;;;;1607173;72;1125;-69
2023/05/13 08:10:16;;;;;;;;;;;22.20;54.10;;;;;;1609131;72;1374;-72
2023/05/13 08:12:18;;;;;;;;;;;22.20;54.10;;;;;;1615706;72;1300;-69
2023/05/13 08:14:20;;;;;;;;;;;22.20;54.10;;;;;;1609251;72;1064;-72
2023/05/13 08:16:22;;;;;;;;;;;22.20;54.20;;;;;;1608872;72;1360;-69
2023/05/13 08:18:24;;;;;;;;;;;22.20;54.20;;;;;;1610572;72;1341;-71
2023/05/13 08:20:28;;;;;;;;;;;22.20;54.10;;;;;;1608115;72;1934;-69
2023/05/13 08:22:29;;;;;;;;;;;22.10;54.20;;;;;;1608622;72;1608;-69
2023/05/13 08:24:31;;;;;;;;;;;22.10;54.20;;;;;;1604886;72;1249;-69
2023/05/13 08:26:33;;;;;;;;;;;22.10;54.10;;;;;;1608084;72;1376;-64
2023/05/13 08:28:35;;;;;;;;;;;22.10;54.10;;;;;;1604213;72;1249;-66
2023/05/13 08:30:39;;;;;;;;;;;22.10;54.10;;;;;;1610507;72;1375;-66
2023/05/13 08:32:40;;;;;;;;;;;22.20;54.20;;;;;;1606520;72;1598;-66
2023/05/13 08:34:42;;;;;;;;;;;22.20;54.10;;;;;;1608438;72;1107;-66
2023/05/13 08:36:44;;;;;;;;;;;22.10;54.10;;;;;;1605598;72;1386;-67
2023/05/13 08:38:46;;;;;;;;;;;22.20;54.20;;;;;;1602436;72;1230;-68
2023/05/13 08:40:48;;;;;;;;;;;22.10;54.10;;;;;;1608988;72;1383;-68
2023/05/13 08:42:50;;;;;;;;;;;22.10;54.10;;;;;;1612198;72;1127;-69
2023/05/13 08:44:52;;;;;;;;;;;22.20;54.10;;;;;;1611216;72;1353;-71
2023/05/13 08:46:55;;;;;;;;;;;22.10;54.10;;;;;;1608316;72;1117;-66
2023/05/13 08:48:57;;;;;;;;;;;22.10;54.10;;;;;;1608028;72;1371;-66
2023/05/13 08:51:00;;;;;;;;;;;22.10;54.00;;;;;;1609113;72;1323;-67
2023/05/13 08:53:03;;;;;;;;;;;22.20;54.20;;;;;;1609400;72;1190;-67
2023/05/13 08:55:05;;;;;;;;;;;22.20;54.50;;;;;;1606702;72;1214;-67
2023/05/13 08:57:07;;;;;;;;;;;22.20;54.40;;;;;;1606516;72;1160;-68
2023/05/13 08:59:09;;;;;;;;;;;22.30;54.60;;;;;;1601909;72;1938;-68
2023/05/13 09:01:11;;;;;;;;;;;22.30;54.70;;;;;;1610116;72;1216;-70
2023/05/13 09:03:13;;;;;;;;;;;22.20;54.60;;;;;;1573866;74;1349;-71
2023/05/13 09:05:15;;;;;;;;;;;22.20;54.50;;;;;;1568502;74;1275;-71
2023/05/13 09:07:17;;;;;;;;;;;22.20;53.80;;;;;;1575578;74;1257;-68
2023/05/13 09:09:19;;;;;;;;;;;22.20;53.10;;;;;;1576970;74;1237;-67
2023/05/13 09:11:21;;;;;;;;;;;22.30;53.50;;;;;;1581914;74;1300;-67
2023/05/13 09:13:23;;;;;;;;;;;22.30;53.50;;;;;;1582352;74;1387;-67
2023/05/13 09:15:26;;;;;;;;;;;22.20;53.40;;;;;;1574157;74;1136;-66
2023/05/13 09:17:29;;;;;;;;;;;22.20;53.50;;;;;;1587983;74;1097;-66
2023/05/13 09:19:31;;;;;;;;;;;22.20;53.60;;;;;;1575786;74;1935;-65
2023/05/13 09:21:34;;;;;;;;;;;22.10;53.60;;;;;;1576273;74;1188;-69
2023/05/13 09:23:36;;;;;;;;;;;22.10;53.70;;;;;;1576087;74;1444;-66
2023/05/13 09:25:38;;;;;;;;;;;22.20;53.70;;;;;;1576835;74;1346;-67
2023/05/13 09:27:41;;;;;;;;;;;22.10;53.80;;;;;;1542428;75;1383;-67
2023/05/13 09:29:43;;;;;;;;;;;22.10;53.80;;;;;;1548789;75;1287;-66
2023/05/13 09:31:45;;;;;;;;;;;22.20;53.90;;;;;;1548204;75;1253;-66
2023/05/13 09:33:53;;;;;;;;;;;22.10;53.90;;;;;;1608823;72;1194;-66
2023/05/13 09:35:55;;;;;;;;;;;22.10;53.90;;;;;;1614176;72;1387;-67
2023/05/13 09:37:57;;;;;;;;;;;22.10;53.90;;;;;;1613853;72;1252;-67
2023/05/13 09:39:59;;;;;;;;;;;22.10;53.90;;;;;;1613436;72;1944;-66
2023/05/13 09:42:01;;;;;;;;;;;22.10;53.90;;;;;;1577230;74;1572;-67
2023/05/13 09:44:03;;;;;;;;;;;22.10;54.00;;;;;;1599289;72;1244;-67
2023/05/13 09:46:05;;;;;;;;;;;22.10;54.00;;;;;;1607274;72;1436;-66
2023/05/13 09:48:07;;;;;;;;;;;22.10;54.00;;;;;;1608387;72;1362;-67
2023/05/13 09:50:10;;;;;;;;;;;22.10;54.00;;;;;;1610673;72;1195;-66
2023/05/13 09:52:12;;;;;;;;;;;22.10;54.00;;;;;;1611967;72;1246;-66
2023/05/13 09:54:14;;;;;;;;;;;22.10;54.10;;;;;;1608255;72;1153;-67
2023/05/13 09:56:17;;;;;;;;;;;22.00;54.00;;;;;;1608292;72;1691;-66
2023/05/13 09:58:20;;;;;;;;;;;22.10;54.00;;;;;;1603666;72;1551;-67
2023/05/13 10:00:22;;;;;;;;;;;22.00;53.90;;;;;;1612181;72;1938;-66
2023/05/13 10:02:25;;;;;;;;;;;22.10;54.10;;;;;;1608611;72;1243;-66
2023/05/13 10:04:27;;;;;;;;;;;22.00;54.00;;;;;;1602953;72;1397;-67
2023/05/13 10:06:29;;;;;;;;;;;22.10;54.00;;;;;;1604890;72;1135;-67
2023/05/13 10:08:31;;;;;;;;;;;22.10;54.00;;;;;;1610623;72;1282;-67
2023/05/13 10:10:34;;;;;;;;;;;22.10;54.00;;;;;;1606282;72;1250;-67
2023/05/13 10:12:36;;;;;;;;;;;22.10;54.00;;;;;;1615680;72;1414;-65
2023/05/13 10:14:38;;;;;;;;;;;22.00;53.90;;;;;;1608970;72;1372;-67
2023/05/13 10:16:40;;;;;;;;;;;22.10;54.00;;;;;;1612921;72;1265;-66
2023/05/13 10:18:42;;;;;;;;;;;22.10;53.90;;;;;;1605030;72;1205;-66
2023/05/13 10:20:44;;;;;;;;;;;22.10;53.90;;;;;;1610696;72;1932;-66
2023/05/13 10:22:46;;;;;;;;;;;22.10;53.90;;;;;;1609975;72;1389;-66
2023/05/13 10:24:47;;;;;;;;;;;22.10;53.90;;;;;;1611829;72;1382;-67
2023/05/13 10:26:51;;;;;;;;;;;22.00;53.80;;;;;;1609497;72;1361;-66
2023/05/13 10:28:52;;;;;;;;;;;22.10;53.90;;;;;;1603821;72;1107;-66
2023/05/13 10:30:54;;;;;;;;;;;22.10;53.90;;;;;;1610070;72;1179;-66
2023/05/13 10:32:56;;;;;;;;;;;22.00;53.80;;;;;;1609570;72;1340;-67
2023/05/13 10:35:06;;;;;;;;;;;22.10;53.90;;;;;;1607827;72;1221;-66
2023/05/13 10:37:09;;;;;;;;;;;22.00;53.80;;;;;;1609792;72;1382;-66
2023/05/13 10:39:25;;;;;;;;;;;22.10;53.90;;;;;;1609149;72;1680;-67
2023/05/13 10:41:37;;;;;;;;;;;22.00;53.80;;;;;;1606355;72;1950;-66
2023/05/13 10:43:40;;;;;;;;;;;22.00;53.80;;;;;;1611953;72;1324;-66
2023/05/13 10:45:48;;;;;;;;;;;22.00;53.80;;;;;;1609654;72;1252;-67
2023/05/13 10:47:50;;;;;;;;;;;22.00;53.80;;;;;;1610198;72;1200;-65
2023/05/13 10:49:52;;;;;;;;;;;22.00;53.80;;;;;;1608858;72;1108;-66
2023/05/13 10:51:54;;;;;;;;;;;22.00;53.80;;;;;;1608411;72;1339;-66
2023/05/13 10:53:57;;;;;;;;;;;22.00;53.80;;;;;;1610033;72;1392;-68
2023/05/13 10:55:59;;;;;;;;;;;22.00;53.80;;;;;;1606262;72;1241;-66
2023/05/13 10:58:12;;;;;;;;;;;22.00;53.80;;;;;;1607661;72;1371;-66
2023/05/13 11:00:14;;;;;;;;;;;22.00;53.80;;;;;;1593791;72;1942;-66
2023/05/13 11:02:22;;;;;;;;;;;22.10;53.80;;;;;;1609358;72;1238;-68
2023/05/13 11:04:24;;;;;;;;;;;22.00;53.70;;;;;;1611773;71;1424;-66
2023/05/13 11:06:29;;;;;;;;;;;22.10;53.80;;;;;;1603120;73;1548;-66
2023/05/13 11:08:38;;;;;;;;;;;22.00;53.60;;;;;;1610353;72;1411;-65
2023/05/13 11:10:39;;;;;;;;;;;22.10;53.80;;;;;;1597955;73;1235;-66
2023/05/13 11:12:41;;;;;;;;;;;22.00;53.70;;;;;;1611517;72;1377;-67
2023/05/13 11:14:43;;;;;;;;;;;22.00;53.60;;;;;;1610274;72;1152;-66
2023/05/13 11:16:50;;;;;;;;;;;22.00;53.60;;;;;;1602834;72;1369;-67
2023/05/13 11:18:52;;;;;;;;;;;22.10;53.70;;;;;;1610951;72;1366;-67
2023/05/13 11:20:54;;;;;;;;;;;22.00;53.60;;;;;;1609619;72;1948;-68
2023/05/13 11:22:55;;;;;;;;;;;22.10;53.70;;;;;;1612301;72;1281;-67
2023/05/13 11:25:07;;;;;;;;;;;22.00;53.60;;;;;;1601144;72;1245;-65
2023/05/13 11:27:17;;;;;;;;;;;22.00;53.60;;;;;;1610990;72;1232;-66
2023/05/13 11:29:35;;;;;;;;;;;22.00;53.60;;;;;;1606759;72;1561;-67
2023/05/13 11:31:49;;;;;;;;;;;22.00;53.60;;;;;;1571447;75;1164;-68
2023/05/13 11:34:12;;;;;;;;;;;22.00;53.60;;;;;;1552616;75;1301;-66
2023/05/13 11:36:11;;;;;;;;;;;22.00;53.60;;;;;;1542185;75;1488;-66
2023/05/13 11:38:13;;;;;;;;;;;22.00;53.60;;;;;;1562653;74;762;-66
2023/05/13 11:40:22;;;;;;;;;;;22.00;53.60;;;;;;1527060;76;1941;-68
2023/05/13 11:42:23;;;;;;;;;;;22.30;53.70;;;;;;1548932;75;769;-67
2023/05/13 11:44:25;;;;;;;;;;;22.00;53.50;;;;;;1617956;72;749;-67
2023/05/13 11:46:28;;;;;;;;;;;22.00;53.60;;;;;;1608125;72;771;-66
2023/05/13 11:48:29;;;;;;;;;;;22.00;53.50;;;;;;1608707;72;1410;-66
2023/05/13 11:50:31;;;;;;;;;;;22.00;53.50;;;;;;1611579;72;1134;-66
2023/05/13 11:52:33;;;;;;;;;;;22.00;53.50;;;;;;1611961;72;767;-66
2023/05/13 11:54:42;;;;;;;;;;;22.00;53.50;;;;;;1610070;72;759;-67
2023/05/13 11:56:44;;;;;;;;;;;22.00;53.50;;;;;;1606815;72;756;-66
2023/05/13 11:58:46;;;;;;;;;;;22.00;53.50;;;;;;1607178;72;792;-66
2023/05/13 12:00:47;;;;;;;;;;;22.00;53.50;;;;;;1614860;72;1948;-67
2023/05/13 12:02:49;;;;;;;;;;;22.00;53.50;;;;;;1609740;72;1536;-66
2023/05/13 12:04:52;;;;;;;;;;;22.00;53.50;;;;;;1609901;72;801;-66
2023/05/13 12:06:53;;;;;;;;;;;22.00;53.50;;;;;;1613243;72;767;-66
2023/05/13 12:08:55;;;;;;;;;;;22.00;53.40;;;;;;1611183;72;770;-66